PRHBC SBCT-SBPF
Flight info
| Callsign | PRHBC |
|---|---|
| Flight time | 1h 3m |
| Altitude | 18000 |
| Route | KIGAT DCT DOLDI DCT ISNIL |
| Aircraft | B58T/L-SDFGRY/C |
Departure
| Time | 2026-05-08 22:39 |
|---|---|
| Airport | Curitiba-Afonso Pena International Airport (SBCT) |
Arrival
| Time | 2026-05-08 23:42 |
|---|---|
| Airport | Lauro Kurtz Airport (SBPF) |
| Time | Latitude | Longitude | Altitude | Speed | Heading |
|---|---|---|---|---|---|
| 2026-05-08 22:25 | -25.53074 | -49.17952 | 2990 ft | 0 kts | 135° |
| 2026-05-08 22:32 | -25.53073 | -49.17963 | 2990 ft | 0 kts | 41° |
| 2026-05-08 22:33 | -25.53043 | -49.17962 | 2990 ft | 7 kts | 23° |
| 2026-05-08 22:34 | -25.53000 | -49.17917 | 2990 ft | 11 kts | 46° |
| 2026-05-08 22:34 | -25.52947 | -49.17895 | 2990 ft | 6 kts | 46° |
| 2026-05-08 22:34 | -25.52973 | -49.17830 | 2990 ft | 17 kts | 99° |
| 2026-05-08 22:34 | -25.52985 | -49.17671 | 2990 ft | 20 kts | 110° |
| 2026-05-08 22:35 | -25.53066 | -49.17557 | 2990 ft | 20 kts | 135° |
| 2026-05-08 22:35 | -25.53176 | -49.17431 | 2990 ft | 24 kts | 136° |
| 2026-05-08 22:35 | -25.53287 | -49.17310 | 2990 ft | 21 kts | 135° |
| 2026-05-08 22:35 | -25.53390 | -49.17195 | 2990 ft | 22 kts | 134° |
| 2026-05-08 22:36 | -25.53499 | -49.17073 | 2990 ft | 21 kts | 135° |
| 2026-05-08 22:36 | -25.53591 | -49.16971 | 2990 ft | 13 kts | 128° |
| 2026-05-08 22:36 | -25.53611 | -49.16892 | 2990 ft | 9 kts | 91° |
| 2026-05-08 22:36 | -25.53611 | -49.16821 | 2989 ft | 11 kts | 90° |
| 2026-05-08 22:37 | -25.53587 | -49.16764 | 2989 ft | 7 kts | 357° |
| 2026-05-08 22:37 | -25.53561 | -49.16780 | 2989 ft | 2 kts | 315° |
| 2026-05-08 22:37 | -25.53560 | -49.16782 | 2988 ft | 0 kts | 315° |
| 2026-05-08 22:37 | -25.53558 | -49.16783 | 2989 ft | 4 kts | 315° |
| 2026-05-08 22:38 | -25.53387 | -49.16973 | 2990 ft | 63 kts | 315° |
| 2026-05-08 22:38 | -25.52977 | -49.17435 | 2997 ft | 100 kts | 313° |
| 2026-05-08 22:38 | -25.52453 | -49.18014 | 3084 ft | 110 kts | 316° |
| 2026-05-08 22:38 | -25.51910 | -49.18559 | 3390 ft | 97 kts | 317° |
| 2026-05-08 22:39 | -25.51549 | -49.19184 | 3669 ft | 111 kts | 277° |
| 2026-05-08 22:39 | -25.51846 | -49.20074 | 3953 ft | 135 kts | 243° |
| 2026-05-08 22:39 | -25.52558 | -49.20915 | 4074 ft | 161 kts | 233° |
| 2026-05-08 22:39 | -25.53374 | -49.21837 | 4202 ft | 169 kts | 237° |
| 2026-05-08 22:40 | -25.53849 | -49.22508 | 4371 ft | 165 kts | 242° |
| 2026-05-08 22:40 | -25.54399 | -49.23609 | 4618 ft | 166 kts | 255° |
| 2026-05-08 22:40 | -25.55018 | -49.25192 | 4945 ft | 173 kts | 257° |
| 2026-05-08 22:40 | -25.55497 | -49.26431 | 5193 ft | 177 kts | 257° |
| 2026-05-08 22:41 | -25.56026 | -49.27693 | 5454 ft | 184 kts | 253° |
| 2026-05-08 22:41 | -25.56433 | -49.28551 | 5617 ft | 188 kts | 251° |
| 2026-05-08 22:41 | -25.57298 | -49.30240 | 5958 ft | 192 kts | 250° |
| 2026-05-08 22:41 | -25.57740 | -49.31096 | 6108 ft | 193 kts | 250° |
| 2026-05-08 22:42 | -25.58415 | -49.32387 | 6352 ft | 196 kts | 246° |
| 2026-05-08 22:42 | -25.59226 | -49.33621 | 6576 ft | 201 kts | 238° |
| 2026-05-08 22:42 | -25.60273 | -49.34724 | 6805 ft | 207 kts | 230° |
| 2026-05-08 22:42 | -25.61357 | -49.35746 | 7022 ft | 207 kts | 230° |
| 2026-05-08 22:43 | -25.62431 | -49.36802 | 7244 ft | 206 kts | 231° |
| 2026-05-08 22:43 | -25.63470 | -49.37885 | 7481 ft | 204 kts | 233° |
| 2026-05-08 22:43 | -25.64489 | -49.38984 | 7726 ft | 205 kts | 233° |
| 2026-05-08 22:43 | -25.65516 | -49.40084 | 7970 ft | 206 kts | 233° |
| 2026-05-08 22:44 | -25.66564 | -49.41183 | 8214 ft | 208 kts | 232° |
| 2026-05-08 22:44 | -25.67624 | -49.42273 | 8437 ft | 207 kts | 232° |
| 2026-05-08 22:44 | -25.68676 | -49.43365 | 8686 ft | 207 kts | 232° |
| 2026-05-08 22:44 | -25.69728 | -49.44463 | 8940 ft | 208 kts | 233° |
| 2026-05-08 22:45 | -25.70775 | -49.45571 | 9192 ft | 208 kts | 233° |
| 2026-05-08 22:45 | -25.71822 | -49.46680 | 9438 ft | 208 kts | 232° |
| 2026-05-08 22:45 | -25.72876 | -49.47788 | 9695 ft | 209 kts | 232° |
| 2026-05-08 22:45 | -25.73940 | -49.48897 | 9932 ft | 210 kts | 232° |
| 2026-05-08 22:46 | -25.75009 | -49.50009 | 10160 ft | 211 kts | 232° |
| 2026-05-08 22:46 | -25.76079 | -49.51129 | 10385 ft | 212 kts | 232° |
| 2026-05-08 22:46 | -25.77148 | -49.52256 | 10611 ft | 212 kts | 232° |
| 2026-05-08 22:46 | -25.78216 | -49.53389 | 10848 ft | 213 kts | 232° |
| 2026-05-08 22:47 | -25.79290 | -49.54522 | 11093 ft | 214 kts | 232° |
| 2026-05-08 22:47 | -25.80379 | -49.55664 | 11351 ft | 217 kts | 231° |
| 2026-05-08 22:47 | -25.81492 | -49.56823 | 11674 ft | 221 kts | 231° |
| 2026-05-08 22:47 | -25.82620 | -49.58002 | 12009 ft | 224 kts | 231° |
| 2026-05-08 22:48 | -25.83746 | -49.59189 | 12366 ft | 227 kts | 232° |
| 2026-05-08 22:48 | -25.84890 | -49.60406 | 12705 ft | 229 kts | 231° |
| 2026-05-08 22:48 | -25.86059 | -49.61639 | 13009 ft | 234 kts | 231° |
| 2026-05-08 22:48 | -25.87253 | -49.62887 | 13316 ft | 238 kts | 231° |
| 2026-05-08 22:49 | -25.88462 | -49.64149 | 13616 ft | 240 kts | 231° |
| 2026-05-08 22:49 | -25.90898 | -49.66727 | 14050 ft | 244 kts | 231° |
| 2026-05-08 22:49 | -25.92132 | -49.68028 | 14227 ft | 245 kts | 231° |
| 2026-05-08 22:50 | -25.93371 | -49.69333 | 14413 ft | 247 kts | 231° |
| 2026-05-08 22:50 | -25.94620 | -49.70648 | 14592 ft | 248 kts | 230° |
| 2026-05-08 22:50 | -25.95874 | -49.71968 | 14771 ft | 248 kts | 231° |
| 2026-05-08 22:50 | -25.97124 | -49.73289 | 14940 ft | 248 kts | 231° |
| 2026-05-08 22:51 | -25.98373 | -49.74607 | 15120 ft | 247 kts | 231° |
| 2026-05-08 22:51 | -25.99615 | -49.75922 | 15307 ft | 247 kts | 231° |
| 2026-05-08 22:51 | -26.00857 | -49.77233 | 15486 ft | 246 kts | 231° |
| 2026-05-08 22:51 | -26.02095 | -49.78537 | 15665 ft | 245 kts | 231° |
| 2026-05-08 22:52 | -26.03324 | -49.79837 | 15854 ft | 243 kts | 231° |
| 2026-05-08 22:52 | -26.04533 | -49.81116 | 16034 ft | 242 kts | 231° |
| 2026-05-08 22:52 | -26.05748 | -49.82401 | 16222 ft | 241 kts | 231° |
| 2026-05-08 22:52 | -26.06963 | -49.83684 | 16415 ft | 240 kts | 232° |
| 2026-05-08 22:53 | -26.08173 | -49.84968 | 16622 ft | 241 kts | 232° |
| 2026-05-08 22:53 | -26.09388 | -49.86256 | 16793 ft | 242 kts | 232° |
| 2026-05-08 22:53 | -26.10606 | -49.87547 | 16964 ft | 242 kts | 231° |
| 2026-05-08 22:53 | -26.11832 | -49.88837 | 17115 ft | 243 kts | 232° |
| 2026-05-08 22:54 | -26.13066 | -49.90145 | 17245 ft | 246 kts | 232° |
| 2026-05-08 22:54 | -26.14308 | -49.91463 | 17368 ft | 247 kts | 232° |
| 2026-05-08 22:54 | -26.15558 | -49.92790 | 17492 ft | 249 kts | 231° |
| 2026-05-08 22:54 | -26.16813 | -49.94119 | 17619 ft | 249 kts | 231° |
| 2026-05-08 22:55 | -26.18072 | -49.95453 | 17748 ft | 250 kts | 232° |
| 2026-05-08 22:55 | -26.19334 | -49.96792 | 17840 ft | 252 kts | 232° |
| 2026-05-08 22:55 | -26.20611 | -49.98151 | 17883 ft | 255 kts | 232° |
| 2026-05-08 22:55 | -26.21906 | -49.99527 | 17897 ft | 259 kts | 231° |
| 2026-05-08 22:56 | -26.23216 | -50.00916 | 17920 ft | 261 kts | 231° |
| 2026-05-08 22:56 | -26.24522 | -50.02300 | 17909 ft | 263 kts | 231° |
| 2026-05-08 22:56 | -26.25848 | -50.03709 | 17904 ft | 264 kts | 231° |
| 2026-05-08 22:56 | -26.27177 | -50.05122 | 17907 ft | 264 kts | 231° |
| 2026-05-08 22:57 | -26.28506 | -50.06534 | 17911 ft | 264 kts | 231° |
| 2026-05-08 22:57 | -26.29829 | -50.07947 | 17912 ft | 262 kts | 232° |
| 2026-05-08 22:57 | -26.31140 | -50.09341 | 17911 ft | 259 kts | 231° |
| 2026-05-08 22:57 | -26.32437 | -50.10721 | 17913 ft | 256 kts | 232° |
| 2026-05-08 22:58 | -26.33722 | -50.12087 | 17912 ft | 254 kts | 232° |
| 2026-05-08 22:58 | -26.34996 | -50.13445 | 17913 ft | 252 kts | 232° |
| 2026-05-08 22:58 | -26.36259 | -50.14792 | 17908 ft | 250 kts | 232° |
| 2026-05-08 22:58 | -26.37515 | -50.16130 | 17915 ft | 249 kts | 232° |
| 2026-05-08 22:59 | -26.38767 | -50.17466 | 17919 ft | 249 kts | 232° |
| 2026-05-08 22:59 | -26.40018 | -50.18801 | 17914 ft | 249 kts | 232° |
| 2026-05-08 22:59 | -26.41271 | -50.20137 | 17914 ft | 249 kts | 232° |
| 2026-05-08 22:59 | -26.42526 | -50.21473 | 17914 ft | 249 kts | 232° |
| 2026-05-08 23:00 | -26.43776 | -50.22806 | 17922 ft | 249 kts | 232° |
| 2026-05-08 23:00 | -26.45031 | -50.24151 | 17920 ft | 250 kts | 232° |
| 2026-05-08 23:00 | -26.46273 | -50.25481 | 17925 ft | 252 kts | 232° |
| 2026-05-08 23:00 | -26.47541 | -50.26834 | 17922 ft | 253 kts | 232° |
| 2026-05-08 23:01 | -26.48817 | -50.28193 | 17928 ft | 254 kts | 232° |
| 2026-05-08 23:01 | -26.50097 | -50.29558 | 17920 ft | 255 kts | 232° |
| 2026-05-08 23:01 | -26.51377 | -50.30931 | 17931 ft | 255 kts | 232° |
| 2026-05-08 23:01 | -26.52657 | -50.32305 | 17936 ft | 256 kts | 232° |
| 2026-05-08 23:02 | -26.53943 | -50.33681 | 17930 ft | 256 kts | 232° |
| 2026-05-08 23:02 | -26.55246 | -50.35039 | 17936 ft | 256 kts | 231° |
| 2026-05-08 23:02 | -26.56531 | -50.36418 | 17945 ft | 256 kts | 233° |
| 2026-05-08 23:02 | -26.57789 | -50.37825 | 17938 ft | 255 kts | 233° |
| 2026-05-08 23:03 | -26.59038 | -50.39233 | 17932 ft | 255 kts | 233° |
| 2026-05-08 23:03 | -26.60300 | -50.40625 | 17940 ft | 255 kts | 233° |
| 2026-05-08 23:03 | -26.61570 | -50.42008 | 17947 ft | 255 kts | 232° |
| 2026-05-08 23:03 | -26.62837 | -50.43390 | 17953 ft | 254 kts | 233° |
| 2026-05-08 23:04 | -26.64094 | -50.44779 | 17950 ft | 254 kts | 233° |
| 2026-05-08 23:04 | -26.65343 | -50.46167 | 17950 ft | 253 kts | 233° |
| 2026-05-08 23:04 | -26.66599 | -50.47555 | 17951 ft | 253 kts | 233° |
| 2026-05-08 23:04 | -26.67849 | -50.48932 | 17958 ft | 252 kts | 233° |
| 2026-05-08 23:05 | -26.69101 | -50.50311 | 17968 ft | 252 kts | 233° |
| 2026-05-08 23:05 | -26.70349 | -50.51687 | 17961 ft | 252 kts | 233° |
| 2026-05-08 23:05 | -26.71594 | -50.53062 | 17966 ft | 251 kts | 233° |
| 2026-05-08 23:05 | -26.72834 | -50.54435 | 17969 ft | 251 kts | 233° |
| 2026-05-08 23:06 | -26.74073 | -50.55806 | 17971 ft | 251 kts | 233° |
| 2026-05-08 23:06 | -26.75311 | -50.57174 | 17967 ft | 250 kts | 233° |
| 2026-05-08 23:06 | -26.76530 | -50.58518 | 17976 ft | 249 kts | 233° |
| 2026-05-08 23:06 | -26.77766 | -50.59885 | 17974 ft | 249 kts | 233° |
| 2026-05-08 23:07 | -26.78997 | -50.61250 | 17978 ft | 249 kts | 233° |
| 2026-05-08 23:07 | -26.80228 | -50.62615 | 17981 ft | 249 kts | 234° |
| 2026-05-08 23:07 | -26.81460 | -50.63976 | 17982 ft | 248 kts | 233° |
| 2026-05-08 23:07 | -26.82688 | -50.65337 | 17988 ft | 248 kts | 233° |
| 2026-05-08 23:08 | -26.83917 | -50.66699 | 17992 ft | 249 kts | 233° |
| 2026-05-08 23:08 | -26.85148 | -50.68064 | 17989 ft | 249 kts | 233° |
| 2026-05-08 23:08 | -26.86377 | -50.69426 | 17992 ft | 249 kts | 234° |
| 2026-05-08 23:08 | -26.87607 | -50.70791 | 18000 ft | 249 kts | 233° |
| 2026-05-08 23:09 | -26.88837 | -50.72157 | 17998 ft | 249 kts | 233° |
| 2026-05-08 23:09 | -26.90071 | -50.73524 | 17997 ft | 249 kts | 233° |
| 2026-05-08 23:09 | -26.91305 | -50.74892 | 17995 ft | 249 kts | 233° |
| 2026-05-08 23:09 | -26.92533 | -50.76257 | 18002 ft | 249 kts | 234° |
| 2026-05-08 23:10 | -26.93761 | -50.77623 | 17994 ft | 248 kts | 234° |
| 2026-05-08 23:10 | -26.94987 | -50.78986 | 17998 ft | 248 kts | 234° |
| 2026-05-08 23:10 | -26.96212 | -50.80347 | 18004 ft | 248 kts | 234° |
| 2026-05-08 23:10 | -26.97438 | -50.81710 | 18005 ft | 248 kts | 234° |
| 2026-05-08 23:11 | -26.98666 | -50.83074 | 18003 ft | 248 kts | 234° |
| 2026-05-08 23:11 | -26.99875 | -50.84420 | 18009 ft | 248 kts | 234° |
| 2026-05-08 23:11 | -27.01101 | -50.85787 | 18001 ft | 249 kts | 234° |
| 2026-05-08 23:11 | -27.02327 | -50.87152 | 18004 ft | 249 kts | 234° |
| 2026-05-08 23:12 | -27.03555 | -50.88517 | 18007 ft | 249 kts | 234° |
| 2026-05-08 23:12 | -27.04783 | -50.89886 | 18001 ft | 249 kts | 234° |
| 2026-05-08 23:12 | -27.06010 | -50.91253 | 18003 ft | 249 kts | 234° |
| 2026-05-08 23:12 | -27.07236 | -50.92621 | 18002 ft | 248 kts | 234° |
| 2026-05-08 23:13 | -27.08459 | -50.93987 | 18002 ft | 248 kts | 234° |
| 2026-05-08 23:13 | -27.09684 | -50.95351 | 18008 ft | 248 kts | 234° |
| 2026-05-08 23:13 | -27.10909 | -50.96718 | 18008 ft | 248 kts | 234° |
| 2026-05-08 23:13 | -27.12134 | -50.98086 | 18008 ft | 248 kts | 234° |
| 2026-05-08 23:14 | -27.13359 | -50.99454 | 18000 ft | 248 kts | 234° |
| 2026-05-08 23:14 | -27.14581 | -51.00822 | 18005 ft | 248 kts | 234° |
| 2026-05-08 23:14 | -27.15802 | -51.02186 | 18005 ft | 248 kts | 234° |
| 2026-05-08 23:14 | -27.17027 | -51.03554 | 18008 ft | 248 kts | 234° |
| 2026-05-08 23:15 | -27.18252 | -51.04921 | 18009 ft | 248 kts | 234° |
| 2026-05-08 23:15 | -27.19477 | -51.06292 | 18011 ft | 248 kts | 234° |
| 2026-05-08 23:15 | -27.20686 | -51.07646 | 18005 ft | 248 kts | 235° |
| 2026-05-08 23:15 | -27.21908 | -51.09014 | 18003 ft | 248 kts | 235° |
| 2026-05-08 23:16 | -27.23131 | -51.10384 | 18003 ft | 248 kts | 235° |
| 2026-05-08 23:16 | -27.24351 | -51.11751 | 18008 ft | 248 kts | 235° |
| 2026-05-08 23:16 | -27.25575 | -51.13123 | 18012 ft | 249 kts | 235° |
| 2026-05-08 23:16 | -27.26802 | -51.14499 | 18005 ft | 249 kts | 235° |
| 2026-05-08 23:17 | -27.28032 | -51.15874 | 18004 ft | 249 kts | 235° |
| 2026-05-08 23:17 | -27.29257 | -51.17244 | 17996 ft | 247 kts | 235° |
| 2026-05-08 23:17 | -27.30468 | -51.18606 | 17992 ft | 246 kts | 236° |
| 2026-05-08 23:17 | -27.31673 | -51.19963 | 17993 ft | 245 kts | 235° |
| 2026-05-08 23:18 | -27.32895 | -51.21296 | 17995 ft | 244 kts | 235° |
| 2026-05-08 23:18 | -27.34081 | -51.22652 | 17993 ft | 242 kts | 238° |
| 2026-05-08 23:18 | -27.35218 | -51.24040 | 17996 ft | 241 kts | 239° |
| 2026-05-08 23:18 | -27.36389 | -51.25400 | 17995 ft | 247 kts | 231° |
| 2026-05-08 23:19 | -27.37696 | -51.26654 | 17994 ft | 246 kts | 232° |
| 2026-05-08 23:19 | -27.38975 | -51.27932 | 17995 ft | 246 kts | 233° |
| 2026-05-08 23:19 | -27.40248 | -51.29220 | 17995 ft | 246 kts | 233° |
| 2026-05-08 23:19 | -27.41517 | -51.30513 | 17994 ft | 246 kts | 233° |
| 2026-05-08 23:20 | -27.42786 | -51.31809 | 17986 ft | 247 kts | 233° |
| 2026-05-08 23:20 | -27.44056 | -51.33107 | 17989 ft | 247 kts | 233° |
| 2026-05-08 23:20 | -27.45327 | -51.34404 | 17993 ft | 247 kts | 233° |
| 2026-05-08 23:20 | -27.46600 | -51.35703 | 17988 ft | 247 kts | 233° |
| 2026-05-08 23:21 | -27.47873 | -51.37002 | 17989 ft | 247 kts | 233° |
| 2026-05-08 23:21 | -27.49144 | -51.38300 | 17986 ft | 246 kts | 233° |
| 2026-05-08 23:21 | -27.50414 | -51.39593 | 17985 ft | 246 kts | 233° |
| 2026-05-08 23:21 | -27.51683 | -51.40887 | 17987 ft | 246 kts | 233° |
| 2026-05-08 23:22 | -27.52954 | -51.42182 | 17974 ft | 246 kts | 233° |
| 2026-05-08 23:22 | -27.54209 | -51.43458 | 17982 ft | 246 kts | 233° |
| 2026-05-08 23:22 | -27.55481 | -51.44751 | 17981 ft | 246 kts | 233° |
| 2026-05-08 23:22 | -27.56746 | -51.46042 | 17979 ft | 245 kts | 233° |
| 2026-05-08 23:23 | -27.58010 | -51.47329 | 17985 ft | 245 kts | 233° |
| 2026-05-08 23:23 | -27.59271 | -51.48613 | 17961 ft | 243 kts | 233° |
| 2026-05-08 23:23 | -27.60531 | -51.49887 | 17974 ft | 243 kts | 233° |
| 2026-05-08 23:23 | -27.61791 | -51.51161 | 17973 ft | 243 kts | 233° |
| 2026-05-08 23:24 | -27.63031 | -51.52446 | 17973 ft | 238 kts | 239° |
| 2026-05-08 23:24 | -27.63752 | -51.53997 | 17980 ft | 217 kts | 264° |
| 2026-05-08 23:24 | -27.64129 | -51.55637 | 17980 ft | 216 kts | 266° |
| 2026-05-08 23:24 | -27.64505 | -51.57305 | 17830 ft | 226 kts | 260° |
| 2026-05-08 23:25 | -27.65164 | -51.58924 | 17571 ft | 227 kts | 252° |
| 2026-05-08 23:25 | -27.65972 | -51.60430 | 17310 ft | 228 kts | 248° |
| 2026-05-08 23:25 | -27.66877 | -51.61883 | 17036 ft | 225 kts | 246° |
| 2026-05-08 23:25 | -27.67809 | -51.63284 | 16766 ft | 222 kts | 245° |
| 2026-05-08 23:26 | -27.68770 | -51.64641 | 16498 ft | 222 kts | 242° |
| 2026-05-08 23:26 | -27.69799 | -51.65934 | 16221 ft | 221 kts | 240° |
| 2026-05-08 23:26 | -27.70855 | -51.67192 | 15956 ft | 220 kts | 239° |
| 2026-05-08 23:26 | -27.71904 | -51.68437 | 15696 ft | 218 kts | 240° |
| 2026-05-08 23:27 | -27.72933 | -51.69688 | 15434 ft | 217 kts | 240° |
| 2026-05-08 23:27 | -27.73948 | -51.70940 | 15189 ft | 215 kts | 240° |
| 2026-05-08 23:27 | -27.74958 | -51.72186 | 14967 ft | 215 kts | 240° |
| 2026-05-08 23:27 | -27.75970 | -51.73420 | 14728 ft | 214 kts | 240° |
| 2026-05-08 23:28 | -27.76983 | -51.74644 | 14499 ft | 213 kts | 240° |
| 2026-05-08 23:28 | -27.77992 | -51.75863 | 14264 ft | 212 kts | 240° |
| 2026-05-08 23:28 | -27.78654 | -51.76669 | 14108 ft | 210 kts | 240° |
| 2026-05-08 23:28 | -27.79646 | -51.77883 | 13884 ft | 209 kts | 241° |
| 2026-05-08 23:29 | -27.80630 | -51.79093 | 13644 ft | 209 kts | 240° |
| 2026-05-08 23:29 | -27.81934 | -51.80689 | 13295 ft | 208 kts | 240° |
| 2026-05-08 23:29 | -27.82598 | -51.81495 | 13130 ft | 207 kts | 240° |
| 2026-05-08 23:29 | -27.83580 | -51.82686 | 12888 ft | 207 kts | 239° |
| 2026-05-08 23:30 | -27.84559 | -51.83879 | 12645 ft | 207 kts | 239° |
| 2026-05-08 23:30 | -27.85540 | -51.85079 | 12401 ft | 208 kts | 239° |
| 2026-05-08 23:30 | -27.86527 | -51.86275 | 12147 ft | 207 kts | 239° |
| 2026-05-08 23:30 | -27.87501 | -51.87474 | 11904 ft | 207 kts | 239° |
| 2026-05-08 23:31 | -27.88472 | -51.88670 | 11670 ft | 207 kts | 238° |
| 2026-05-08 23:31 | -27.89435 | -51.89847 | 11434 ft | 206 kts | 237° |
| 2026-05-08 23:31 | -27.90411 | -51.91035 | 11191 ft | 206 kts | 237° |
| 2026-05-08 23:31 | -27.91386 | -51.92224 | 10953 ft | 206 kts | 237° |
| 2026-05-08 23:32 | -27.92354 | -51.93404 | 10688 ft | 203 kts | 236° |
| 2026-05-08 23:32 | -27.93312 | -51.94575 | 10485 ft | 203 kts | 236° |
| 2026-05-08 23:32 | -27.94263 | -51.95748 | 10254 ft | 202 kts | 236° |
| 2026-05-08 23:32 | -27.95213 | -51.96920 | 10025 ft | 202 kts | 236° |
| 2026-05-08 23:33 | -27.96171 | -51.98087 | 9788 ft | 202 kts | 235° |
| 2026-05-08 23:33 | -27.97129 | -51.99248 | 9531 ft | 201 kts | 235° |
| 2026-05-08 23:33 | -27.98073 | -52.00400 | 9248 ft | 198 kts | 235° |
| 2026-05-08 23:33 | -27.98995 | -52.01539 | 8974 ft | 195 kts | 236° |
| 2026-05-08 23:34 | -27.99876 | -52.02630 | 8711 ft | 193 kts | 235° |
| 2026-05-08 23:34 | -28.00777 | -52.03742 | 8439 ft | 191 kts | 235° |
| 2026-05-08 23:34 | -28.01676 | -52.04839 | 8155 ft | 189 kts | 234° |
| 2026-05-08 23:34 | -28.02570 | -52.05930 | 7897 ft | 188 kts | 235° |
| 2026-05-08 23:35 | -28.03456 | -52.07012 | 7616 ft | 187 kts | 235° |
| 2026-05-08 23:35 | -28.04341 | -52.08095 | 7396 ft | 187 kts | 235° |
| 2026-05-08 23:35 | -28.05217 | -52.09173 | 7148 ft | 185 kts | 235° |
| 2026-05-08 23:35 | -28.06083 | -52.10246 | 6894 ft | 184 kts | 236° |
| 2026-05-08 23:36 | -28.06979 | -52.11281 | 6633 ft | 186 kts | 227° |
| 2026-05-08 23:36 | -28.07982 | -52.12170 | 6374 ft | 184 kts | 224° |
| 2026-05-08 23:36 | -28.09022 | -52.13017 | 6147 ft | 185 kts | 222° |
| 2026-05-08 23:36 | -28.10068 | -52.13864 | 5929 ft | 184 kts | 223° |
| 2026-05-08 23:37 | -28.11111 | -52.14709 | 5734 ft | 185 kts | 223° |
| 2026-05-08 23:37 | -28.12135 | -52.15593 | 5576 ft | 185 kts | 226° |
| 2026-05-08 23:37 | -28.13144 | -52.16483 | 5336 ft | 183 kts | 224° |
| 2026-05-08 23:37 | -28.14152 | -52.17356 | 5085 ft | 181 kts | 225° |
| 2026-05-08 23:38 | -28.15149 | -52.18230 | 4848 ft | 181 kts | 225° |
| 2026-05-08 23:38 | -28.16087 | -52.19150 | 4570 ft | 174 kts | 239° |
| 2026-05-08 23:38 | -28.16761 | -52.20276 | 4320 ft | 172 kts | 243° |
| 2026-05-08 23:38 | -28.17455 | -52.21368 | 4124 ft | 171 kts | 231° |
| 2026-05-08 23:39 | -28.18496 | -52.22010 | 4050 ft | 171 kts | 207° |
| 2026-05-08 23:39 | -28.19589 | -52.22490 | 3996 ft | 169 kts | 206° |
| 2026-05-08 23:39 | -28.20687 | -52.22955 | 3992 ft | 166 kts | 207° |
| 2026-05-08 23:39 | -28.21461 | -52.23777 | 3994 ft | 149 kts | 254° |
| 2026-05-08 23:40 | -28.21841 | -52.24891 | 3887 ft | 155 kts | 255° |
| 2026-05-08 23:40 | -28.22193 | -52.26038 | 3776 ft | 153 kts | 259° |
| 2026-05-08 23:40 | -28.22469 | -52.27182 | 3625 ft | 149 kts | 253° |
| 2026-05-08 23:40 | -28.22847 | -52.28265 | 3461 ft | 147 kts | 254° |
| 2026-05-08 23:41 | -28.23210 | -52.29356 | 3169 ft | 146 kts | 253° |
| 2026-05-08 23:41 | -28.23567 | -52.30376 | 2911 ft | 125 kts | 252° |
| 2026-05-08 23:41 | -28.23857 | -52.31232 | 2653 ft | 114 kts | 248° |
| 2026-05-08 23:41 | -28.24152 | -52.32076 | 2441 ft | 112 kts | 248° |
| 2026-05-08 23:42 | -28.24403 | -52.32801 | 2427 ft | 82 kts | 249° |
| 2026-05-08 23:42 | -28.24506 | -52.33118 | 2425 ft | 11 kts | 260° |
| 2026-05-08 23:42 | -28.24513 | -52.33099 | 2425 ft | 9 kts | 66° |
| 2026-05-08 23:42 | -28.24478 | -52.33010 | 2423 ft | 15 kts | 69° |
| 2026-05-08 23:43 | -28.24437 | -52.32915 | 2425 ft | 10 kts | 34° |
| 2026-05-08 23:43 | -28.24376 | -52.32922 | 2423 ft | 10 kts | 339° |
| 2026-05-08 23:43 | -28.24339 | -52.32962 | 2422 ft | 6 kts | 261° |
| 2026-05-08 23:43 | -28.24354 | -52.33009 | 2423 ft | 0 kts | 250° |